sensor_id;sensor_type;location;lat;lon;timestamp;temperature;humidity
69084;SHT31;56185;48.526;9.044;2022-12-29T00:00:07;5.75;84.66
69084;SHT31;56185;48.526;9.044;2022-12-29T00:02:33;5.94;83.39
69084;SHT31;56185;48.526;9.044;2022-12-29T00:04:58;5.77;82.24
69084;SHT31;56185;48.526;9.044;2022-12-29T00:07:23;5.85;82.31
69084;SHT31;56185;48.526;9.044;2022-12-29T00:09:49;5.52;82.82
69084;SHT31;56185;48.526;9.044;2022-12-29T00:12:14;5.52;82.95
69084;SHT31;56185;48.526;9.044;2022-12-29T00:14:39;5.55;82.89
69084;SHT31;56185;48.526;9.044;2022-12-29T00:17:04;5.72;82.13
69084;SHT31;56185;48.526;9.044;2022-12-29T00:19:30;5.83;81.79
69084;SHT31;56185;48.526;9.044;2022-12-29T00:21:55;5.89;81.79
69084;SHT31;56185;48.526;9.044;2022-12-29T00:24:21;5.80;82.26
69084;SHT31;56185;48.526;9.044;2022-12-29T00:26:49;5.86;82.75
69084;SHT31;56185;48.526;9.044;2022-12-29T00:29:14;5.89;82.63
69084;SHT31;56185;48.526;9.044;2022-12-29T00:31:39;6.03;82.19
69084;SHT31;56185;48.526;9.044;2022-12-29T00:34:08;6.10;82.37
69084;SHT31;56185;48.526;9.044;2022-12-29T00:36:37;6.11;81.64
69084;SHT31;56185;48.526;9.044;2022-12-29T00:39:09;6.13;81.92
69084;SHT31;56185;48.526;9.044;2022-12-29T00:41:36;6.11;81.28
69084;SHT31;56185;48.526;9.044;2022-12-29T00:44:01;5.96;81.68
69084;SHT31;56185;48.526;9.044;2022-12-29T00:46:26;6.03;81.68
69084;SHT31;56185;48.526;9.044;2022-12-29T00:48:52;5.89;82.66
69084;SHT31;56185;48.526;9.044;2022-12-29T00:51:17;6.11;82.19
69084;SHT31;56185;48.526;9.044;2022-12-29T00:53:42;6.31;81.92
69084;SHT31;56185;48.526;9.044;2022-12-29T00:56:07;6.35;81.33
69084;SHT31;56185;48.526;9.044;2022-12-29T00:58:33;6.38;81.77
69084;SHT31;56185;48.526;9.044;2022-12-29T01:01:02;6.51;80.60
69084;SHT31;56185;48.526;9.044;2022-12-29T01:03:28;6.51;81.17
69084;SHT31;56185;48.526;9.044;2022-12-29T01:05:53;6.56;81.30
69084;SHT31;56185;48.526;9.044;2022-12-29T01:08:19;6.51;81.69
69084;SHT31;56185;48.526;9.044;2022-12-29T01:10:44;6.58;80.86
69084;SHT31;56185;48.526;9.044;2022-12-29T01:13:09;6.49;81.43
69084;SHT31;56185;48.526;9.044;2022-12-29T01:15:34;6.68;80.77
69084;SHT31;56185;48.526;9.044;2022-12-29T01:17:59;6.65;80.85
69084;SHT31;56185;48.526;9.044;2022-12-29T01:20:25;6.59;80.28
69084;SHT31;56185;48.526;9.044;2022-12-29T01:22:50;6.54;80.96
69084;SHT31;56185;48.526;9.044;2022-12-29T01:25:15;6.62;80.98
69084;SHT31;56185;48.526;9.044;2022-12-29T01:27:40;6.76;80.77
69084;SHT31;56185;48.526;9.044;2022-12-29T01:30:06;6.83;79.91
69084;SHT31;56185;48.526;9.044;2022-12-29T01:32:31;6.65;80.23
69084;SHT31;56185;48.526;9.044;2022-12-29T01:34:57;6.68;80.62
69084;SHT31;56185;48.526;9.044;2022-12-29T01:37:22;6.62;81.08
69084;SHT31;56185;48.526;9.044;2022-12-29T01:39:47;6.75;80.08
69084;SHT31;56185;48.526;9.044;2022-12-29T01:42:17;6.89;79.20
69084;SHT31;56185;48.526;9.044;2022-12-29T01:47:30;6.88;78.58
69084;SHT31;56185;48.526;9.044;2022-12-29T01:50:00;6.92;78.33
69084;SHT31;56185;48.526;9.044;2022-12-29T01:52:30;6.97;78.25
69084;SHT31;56185;48.526;9.044;2022-12-29T01:54:58;6.99;78.30
69084;SHT31;56185;48.526;9.044;2022-12-29T01:57:27;7.03;77.70
69084;SHT31;56185;48.526;9.044;2022-12-29T01:59:58;7.07;77.02
69084;SHT31;56185;48.526;9.044;2022-12-29T02:02:24;7.12;77.11
69084;SHT31;56185;48.526;9.044;2022-12-29T02:04:51;7.30;76.46
69084;SHT31;56185;48.526;9.044;2022-12-29T02:07:19;7.37;75.47
69084;SHT31;56185;48.526;9.044;2022-12-29T02:09:50;7.40;76.00
69084;SHT31;56185;48.526;9.044;2022-12-29T02:12:17;7.51;75.39
69084;SHT31;56185;48.526;9.044;2022-12-29T02:14:44;7.63;74.76
69084;SHT31;56185;48.526;9.044;2022-12-29T02:17:15;7.65;74.92
69084;SHT31;56185;48.526;9.044;2022-12-29T02:36:41;8.47;70.92
69084;SHT31;56185;48.526;9.044;2022-12-29T02:41:58;8.71;69.46
69084;SHT31;56185;48.526;9.044;2022-12-29T02:47:22;8.95;68.97
69084;SHT31;56185;48.526;9.044;2022-12-29T02:50:06;8.95;68.66
69084;SHT31;56185;48.526;9.044;2022-12-29T02:53:04;8.85;69.11
69084;SHT31;56185;48.526;9.044;2022-12-29T02:55:30;8.91;69.01
69084;SHT31;56185;48.526;9.044;2022-12-29T03:00:37;9.01;68.01
69084;SHT31;56185;48.526;9.044;2022-12-29T03:03:15;9.10;67.95
69084;SHT31;56185;48.526;9.044;2022-12-29T03:08:48;9.04;68.33
69084;SHT31;56185;48.526;9.044;2022-12-29T03:11:14;9.07;67.94
69084;SHT31;56185;48.526;9.044;2022-12-29T03:13:47;9.05;68.45
69084;SHT31;56185;48.526;9.044;2022-12-29T03:16:24;9.10;68.44
69084;SHT31;56185;48.526;9.044;2022-12-29T03:21:40;9.39;67.65
69084;SHT31;56185;48.526;9.044;2022-12-29T03:24:06;9.39;67.29
69084;SHT31;56185;48.526;9.044;2022-12-29T03:26:32;9.35;67.50
69084;SHT31;56185;48.526;9.044;2022-12-29T03:28:57;9.47;66.84
69084;SHT31;56185;48.526;9.044;2022-12-29T03:31:23;9.44;66.84
69084;SHT31;56185;48.526;9.044;2022-12-29T03:33:50;9.49;67.11
69084;SHT31;56185;48.526;9.044;2022-12-29T03:36:23;9.50;67.30
69084;SHT31;56185;48.526;9.044;2022-12-29T03:39:02;9.49;67.17
69084;SHT31;56185;48.526;9.044;2022-12-29T03:41:30;9.49;67.81
69084;SHT31;56185;48.526;9.044;2022-12-29T03:43:56;9.66;66.84
69084;SHT31;56185;48.526;9.044;2022-12-29T03:46:21;9.70;66.56
69084;SHT31;56185;48.526;9.044;2022-12-29T03:48:47;9.72;66.70
69084;SHT31;56185;48.526;9.044;2022-12-29T03:51:12;9.76;66.72
69084;SHT31;56185;48.526;9.044;2022-12-29T03:53:37;9.77;66.70
69084;SHT31;56185;48.526;9.044;2022-12-29T03:56:03;9.70;67.20
69084;SHT31;56185;48.526;9.044;2022-12-29T03:58:28;9.72;67.54
69084;SHT31;56185;48.526;9.044;2022-12-29T04:00:53;9.74;67.48
69084;SHT31;56185;48.526;9.044;2022-12-29T04:03:18;9.72;67.79
69084;SHT31;56185;48.526;9.044;2022-12-29T04:05:44;9.69;67.57
69084;SHT31;56185;48.526;9.044;2022-12-29T04:08:09;9.63;68.46
69084;SHT31;56185;48.526;9.044;2022-12-29T04:10:34;9.63;67.94
69084;SHT31;56185;48.526;9.044;2022-12-29T04:13:00;9.62;68.40
69084;SHT31;56185;48.526;9.044;2022-12-29T04:15:25;9.54;68.00
69084;SHT31;56185;48.526;9.044;2022-12-29T04:17:50;9.53;67.79
69084;SHT31;56185;48.526;9.044;2022-12-29T04:20:15;9.54;68.16
69084;SHT31;56185;48.526;9.044;2022-12-29T04:22:41;9.53;67.80
69084;SHT31;56185;48.526;9.044;2022-12-29T04:25:06;9.56;68.27
69084;SHT31;56185;48.526;9.044;2022-12-29T04:27:32;9.50;68.46
69084;SHT31;56185;48.526;9.044;2022-12-29T04:29:57;9.52;68.48
69084;SHT31;56185;48.526;9.044;2022-12-29T04:32:22;9.33;68.93
69084;SHT31;56185;48.526;9.044;2022-12-29T04:34:47;9.25;69.32
69084;SHT31;56185;48.526;9.044;2022-12-29T04:37:13;9.19;69.51
69084;SHT31;56185;48.526;9.044;2022-12-29T04:39:38;9.15;69.20
69084;SHT31;56185;48.526;9.044;2022-12-29T04:42:03;9.19;69.38
69084;SHT31;56185;48.526;9.044;2022-12-29T04:44:28;9.23;69.04
69084;SHT31;56185;48.526;9.044;2022-12-29T04:46:53;9.08;69.74
69084;SHT31;56185;48.526;9.044;2022-12-29T04:49:19;9.04;69.32
69084;SHT31;56185;48.526;9.044;2022-12-29T04:51:44;9.11;69.88
69084;SHT31;56185;48.526;9.044;2022-12-29T04:54:09;8.95;69.82
69084;SHT31;56185;48.526;9.044;2022-12-29T04:56:34;9.04;69.23
69084;SHT31;56185;48.526;9.044;2022-12-29T04:59:00;9.07;69.14
69084;SHT31;56185;48.526;9.044;2022-12-29T05:01:25;9.12;69.15
69084;SHT31;56185;48.526;9.044;2022-12-29T05:03:50;9.21;69.07
69084;SHT31;56185;48.526;9.044;2022-12-29T05:06:16;9.18;69.77
69084;SHT31;56185;48.526;9.044;2022-12-29T05:08:41;9.18;68.94
69084;SHT31;56185;48.526;9.044;2022-12-29T05:11:06;9.21;69.67
69084;SHT31;56185;48.526;9.044;2022-12-29T05:13:31;9.28;68.44
69084;SHT31;56185;48.526;9.044;2022-12-29T05:15:57;9.32;68.28
69084;SHT31;56185;48.526;9.044;2022-12-29T05:18:22;9.36;68.11
69084;SHT31;56185;48.526;9.044;2022-12-29T05:20:47;9.39;67.93
69084;SHT31;56185;48.526;9.044;2022-12-29T05:23:13;9.28;68.11
69084;SHT31;56185;48.526;9.044;2022-12-29T05:25:38;9.26;68.68
69084;SHT31;56185;48.526;9.044;2022-12-29T05:28:04;9.36;68.22
69084;SHT31;56185;48.526;9.044;2022-12-29T05:30:29;9.36;68.41
69084;SHT31;56185;48.526;9.044;2022-12-29T05:32:54;9.25;68.38
69084;SHT31;56185;48.526;9.044;2022-12-29T05:35:19;9.21;69.01
69084;SHT31;56185;48.526;9.044;2022-12-29T05:37:45;9.16;68.71
69084;SHT31;56185;48.526;9.044;2022-12-29T05:40:10;9.25;69.22
69084;SHT31;56185;48.526;9.044;2022-12-29T05:42:36;9.26;68.52
69084;SHT31;56185;48.526;9.044;2022-12-29T05:45:01;9.25;69.19
69084;SHT31;56185;48.526;9.044;2022-12-29T05:47:26;9.26;68.87
69084;SHT31;56185;48.526;9.044;2022-12-29T05:49:51;9.25;68.78
69084;SHT31;56185;48.526;9.044;2022-12-29T05:52:17;9.25;69.14
69084;SHT31;56185;48.526;9.044;2022-12-29T05:54:42;9.32;68.44
69084;SHT31;56185;48.526;9.044;2022-12-29T05:57:08;9.28;68.64
69084;SHT31;56185;48.526;9.044;2022-12-29T05:59:33;9.40;67.88
69084;SHT31;56185;48.526;9.044;2022-12-29T06:01:58;9.40;68.64
69084;SHT31;56185;48.526;9.044;2022-12-29T06:04:23;9.50;68.42
69084;SHT31;56185;48.526;9.044;2022-12-29T06:06:49;9.50;68.78
69084;SHT31;56185;48.526;9.044;2022-12-29T06:09:14;9.54;67.81
69084;SHT31;56185;48.526;9.044;2022-12-29T06:11:39;9.56;68.68
69084;SHT31;56185;48.526;9.044;2022-12-29T06:14:04;9.50;68.75
69084;SHT31;56185;48.526;9.044;2022-12-29T06:16:29;9.46;69.60
69084;SHT31;56185;48.526;9.044;2022-12-29T06:18:55;9.46;69.90
69084;SHT31;56185;48.526;9.044;2022-12-29T06:21:20;9.39;70.20
69084;SHT31;56185;48.526;9.044;2022-12-29T06:23:45;9.40;69.67
69084;SHT31;56185;48.526;9.044;2022-12-29T06:26:10;9.32;70.25
69084;SHT31;56185;48.526;9.044;2022-12-29T06:28:36;9.31;70.38
69084;SHT31;56185;48.526;9.044;2022-12-29T06:31:01;9.35;70.48
69084;SHT31;56185;48.526;9.044;2022-12-29T06:33:26;9.39;69.98
69084;SHT31;56185;48.526;9.044;2022-12-29T06:35:51;9.43;69.37
69084;SHT31;56185;48.526;9.044;2022-12-29T06:38:17;9.53;68.66
69084;SHT31;56185;48.526;9.044;2022-12-29T06:40:43;9.63;68.68
69084;SHT31;56185;48.526;9.044;2022-12-29T06:43:08;9.73;68.10
69084;SHT31;56185;48.526;9.044;2022-12-29T06:45:33;9.72;68.60
69084;SHT31;56185;48.526;9.044;2022-12-29T06:47:58;9.70;68.81
69084;SHT31;56185;48.526;9.044;2022-12-29T06:50:24;9.76;69.27
69084;SHT31;56185;48.526;9.044;2022-12-29T06:52:49;9.74;69.14
69084;SHT31;56185;48.526;9.044;2022-12-29T06:55:17;9.89;68.22
69084;SHT31;56185;48.526;9.044;2022-12-29T06:57:42;9.87;68.17
69084;SHT31;56185;48.526;9.044;2022-12-29T07:00:08;9.90;68.61
69084;SHT31;56185;48.526;9.044;2022-12-29T07:02:33;9.97;67.95
69084;SHT31;56185;48.526;9.044;2022-12-29T07:04:59;9.97;69.05
69084;SHT31;56185;48.526;9.044;2022-12-29T07:07:24;10.00;68.87
69084;SHT31;56185;48.526;9.044;2022-12-29T07:09:49;9.98;68.19
69084;SHT31;56185;48.526;9.044;2022-12-29T07:12:14;9.89;69.45
69084;SHT31;56185;48.526;9.044;2022-12-29T07:14:40;9.97;69.44
69084;SHT31;56185;48.526;9.044;2022-12-29T07:17:05;9.91;69.21
69084;SHT31;56185;48.526;9.044;2022-12-29T07:19:31;9.87;68.92
69084;SHT31;56185;48.526;9.044;2022-12-29T07:21:56;9.79;70.12
69084;SHT31;56185;48.526;9.044;2022-12-29T07:24:22;9.77;70.05
69084;SHT31;56185;48.526;9.044;2022-12-29T07:26:47;9.73;70.08
69084;SHT31;56185;48.526;9.044;2022-12-29T07:29:12;9.73;70.37
69084;SHT31;56185;48.526;9.044;2022-12-29T07:31:37;9.70;70.62
69084;SHT31;56185;48.526;9.044;2022-12-29T07:34:03;9.73;69.86
69084;SHT31;56185;48.526;9.044;2022-12-29T07:36:28;9.81;69.70
69084;SHT31;56185;48.526;9.044;2022-12-29T07:38:53;9.91;69.40
69084;SHT31;56185;48.526;9.044;2022-12-29T07:41:18;9.93;69.62
69084;SHT31;56185;48.526;9.044;2022-12-29T07:43:47;9.98;68.81
69084;SHT31;56185;48.526;9.044;2022-12-29T07:46:12;10.08;68.68
69084;SHT31;56185;48.526;9.044;2022-12-29T07:48:37;10.05;69.12
69084;SHT31;56185;48.526;9.044;2022-12-29T07:51:03;10.11;69.65
69084;SHT31;56185;48.526;9.044;2022-12-29T07:53:28;10.12;69.03
69084;SHT31;56185;48.526;9.044;2022-12-29T07:55:53;10.15;69.11
69084;SHT31;56185;48.526;9.044;2022-12-29T07:58:18;10.18;68.92
69084;SHT31;56185;48.526;9.044;2022-12-29T08:00:44;10.31;68.81
69084;SHT31;56185;48.526;9.044;2022-12-29T08:03:09;10.21;69.03
69084;SHT31;56185;48.526;9.044;2022-12-29T08:05:34;10.24;68.85
69084;SHT31;56185;48.526;9.044;2022-12-29T08:08:00;10.27;68.77
69084;SHT31;56185;48.526;9.044;2022-12-29T08:10:25;10.22;69.00
69084;SHT31;56185;48.526;9.044;2022-12-29T08:12:50;10.25;69.24
69084;SHT31;56185;48.526;9.044;2022-12-29T08:15:16;10.31;69.20
69084;SHT31;56185;48.526;9.044;2022-12-29T08:17:41;10.34;68.87
69084;SHT31;56185;48.526;9.044;2022-12-29T08:20:07;10.35;69.03
69084;SHT31;56185;48.526;9.044;2022-12-29T08:22:32;10.34;69.23
69084;SHT31;56185;48.526;9.044;2022-12-29T08:24:58;10.37;68.75
69084;SHT31;56185;48.526;9.044;2022-12-29T08:27:23;10.37;68.26
69084;SHT31;56185;48.526;9.044;2022-12-29T08:29:48;10.44;68.06
69084;SHT31;56185;48.526;9.044;2022-12-29T08:32:13;10.44;68.35
69084;SHT31;56185;48.526;9.044;2022-12-29T08:34:39;10.51;67.35
69084;SHT31;56185;48.526;9.044;2022-12-29T08:37:04;10.51;67.75
69084;SHT31;56185;48.526;9.044;2022-12-29T08:39:29;10.51;67.78
69084;SHT31;56185;48.526;9.044;2022-12-29T08:41:55;10.49;67.37
69084;SHT31;56185;48.526;9.044;2022-12-29T08:44:20;10.53;67.72
69084;SHT31;56185;48.526;9.044;2022-12-29T08:46:45;10.55;67.10
69084;SHT31;56185;48.526;9.044;2022-12-29T08:49:11;10.55;66.85
69084;SHT31;56185;48.526;9.044;2022-12-29T08:51:36;10.56;66.92
69084;SHT31;56185;48.526;9.044;2022-12-29T08:54:01;10.53;66.53
69084;SHT31;56185;48.526;9.044;2022-12-29T08:56:27;10.58;66.84
69084;SHT31;56185;48.526;9.044;2022-12-29T08:58:53;10.56;66.73
69084;SHT31;56185;48.526;9.044;2022-12-29T09:01:18;10.63;67.19
69084;SHT31;56185;48.526;9.044;2022-12-29T09:03:44;10.68;66.17
69084;SHT31;56185;48.526;9.044;2022-12-29T09:06:10;10.69;66.74
69084;SHT31;56185;48.526;9.044;2022-12-29T09:08:36;10.79;66.94
69084;SHT31;56185;48.526;9.044;2022-12-29T09:13:39;10.73;66.47
69084;SHT31;56185;48.526;9.044;2022-12-29T09:16:05;10.77;66.54
69084;SHT31;56185;48.526;9.044;2022-12-29T09:18:31;10.86;66.59
69084;SHT31;56185;48.526;9.044;2022-12-29T09:21:01;10.89;66.18
69084;SHT31;56185;48.526;9.044;2022-12-29T09:26:01;10.92;66.74
69084;SHT31;56185;48.526;9.044;2022-12-29T09:28:27;10.93;66.83
69084;SHT31;56185;48.526;9.044;2022-12-29T09:30:52;10.93;67.47
69084;SHT31;56185;48.526;9.044;2022-12-29T09:33:17;10.99;67.46
69084;SHT31;56185;48.526;9.044;2022-12-29T09:35:44;11.01;67.57
69084;SHT31;56185;48.526;9.044;2022-12-29T09:38:10;10.99;68.13
69084;SHT31;56185;48.526;9.044;2022-12-29T09:40:36;11.09;68.02
69084;SHT31;56185;48.526;9.044;2022-12-29T09:48:40;11.26;67.25
69084;SHT31;56185;48.526;9.044;2022-12-29T09:51:18;11.20;68.03
69084;SHT31;56185;48.526;9.044;2022-12-29T09:53:55;11.26;68.07
69084;SHT31;56185;48.526;9.044;2022-12-29T09:56:22;11.14;68.60
69084;SHT31;56185;48.526;9.044;2022-12-29T09:59:09;11.21;68.31
69084;SHT31;56185;48.526;9.044;2022-12-29T10:01:51;11.21;68.04
69084;SHT31;56185;48.526;9.044;2022-12-29T10:04:18;11.24;67.72
69084;SHT31;56185;48.526;9.044;2022-12-29T10:06:54;11.23;68.19
69084;SHT31;56185;48.526;9.044;2022-12-29T10:09:29;11.23;68.20
69084;SHT31;56185;48.526;9.044;2022-12-29T10:15:12;11.19;69.11
69084;SHT31;56185;48.526;9.044;2022-12-29T10:18:01;11.17;68.69
69084;SHT31;56185;48.526;9.044;2022-12-29T10:20:37;11.17;68.12
69084;SHT31;56185;48.526;9.044;2022-12-29T10:25:32;11.19;68.53
69084;SHT31;56185;48.526;9.044;2022-12-29T10:28:04;11.21;68.79
69084;SHT31;56185;48.526;9.044;2022-12-29T10:30:33;11.19;68.89
69084;SHT31;56185;48.526;9.044;2022-12-29T10:33:01;11.14;68.68
69084;SHT31;56185;48.526;9.044;2022-12-29T10:35:33;11.11;69.18
69084;SHT31;56185;48.526;9.044;2022-12-29T10:41:15;11.13;69.21
69084;SHT31;56185;48.526;9.044;2022-12-29T10:44:09;11.06;69.63
69084;SHT31;56185;48.526;9.044;2022-12-29T10:46:36;11.17;69.60
69084;SHT31;56185;48.526;9.044;2022-12-29T10:49:03;11.17;69.39
69084;SHT31;56185;48.526;9.044;2022-12-29T10:51:32;11.19;69.55
69084;SHT31;56185;48.526;9.044;2022-12-29T10:54:06;11.20;69.63
69084;SHT31;56185;48.526;9.044;2022-12-29T10:56:40;11.11;70.28
69084;SHT31;56185;48.526;9.044;2022-12-29T11:07:01;11.31;70.16
69084;SHT31;56185;48.526;9.044;2022-12-29T11:09:31;11.26;70.19
69084;SHT31;56185;48.526;9.044;2022-12-29T11:11:57;11.30;70.15
69084;SHT31;56185;48.526;9.044;2022-12-29T11:14:28;11.17;70.65
69084;SHT31;56185;48.526;9.044;2022-12-29T11:17:01;11.27;70.41
69084;SHT31;56185;48.526;9.044;2022-12-29T11:19:29;11.35;70.94
69084;SHT31;56185;48.526;9.044;2022-12-29T11:21:55;11.32;71.09
69084;SHT31;56185;48.526;9.044;2022-12-29T11:26:52;11.26;73.01
69084;SHT31;56185;48.526;9.044;2022-12-29T11:29:41;11.10;73.30
69084;SHT31;56185;48.526;9.044;2022-12-29T11:32:12;11.13;75.74
69084;SHT31;56185;48.526;9.044;2022-12-29T11:34:38;11.16;76.46
69084;SHT31;56185;48.526;9.044;2022-12-29T11:37:11;11.10;77.39
69084;SHT31;56185;48.526;9.044;2022-12-29T11:39:59;11.00;77.83
69084;SHT31;56185;48.526;9.044;2022-12-29T11:45:20;11.04;77.73
69084;SHT31;56185;48.526;9.044;2022-12-29T11:47:52;11.04;78.22
69084;SHT31;56185;48.526;9.044;2022-12-29T11:50:25;11.07;77.84
69084;SHT31;56185;48.526;9.044;2022-12-29T11:52:58;11.16;78.00
69084;SHT31;56185;48.526;9.044;2022-12-29T11:55:25;11.16;77.90
69084;SHT31;56185;48.526;9.044;2022-12-29T11:57:54;11.10;77.19
69084;SHT31;56185;48.526;9.044;2022-12-29T12:00:22;11.14;77.09
69084;SHT31;56185;48.526;9.044;2022-12-29T12:10:44;11.00;77.09
69084;SHT31;56185;48.526;9.044;2022-12-29T12:13:19;11.09;76.21
69084;SHT31;56185;48.526;9.044;2022-12-29T12:16:12;11.07;76.95
69084;SHT31;56185;48.526;9.044;2022-12-29T12:22:00;11.09;76.55
69084;SHT31;56185;48.526;9.044;2022-12-29T12:27:28;11.10;77.65
69084;SHT31;56185;48.526;9.044;2022-12-29T12:34:56;11.11;78.62
69084;SHT31;56185;48.526;9.044;2022-12-29T12:40:56;11.00;79.01
69084;SHT31;56185;48.526;9.044;2022-12-29T12:49:20;11.06;80.95
69084;SHT31;56185;48.526;9.044;2022-12-29T12:55:28;11.04;80.23
69084;SHT31;56185;48.526;9.044;2022-12-29T13:00:40;10.97;80.34
69084;SHT31;56185;48.526;9.044;2022-12-29T13:03:38;10.92;80.34
69084;SHT31;56185;48.526;9.044;2022-12-29T13:09:04;10.93;80.45
69084;SHT31;56185;48.526;9.044;2022-12-29T13:16:51;10.99;79.70
69084;SHT31;56185;48.526;9.044;2022-12-29T13:19:44;10.97;79.35
69084;SHT31;56185;48.526;9.044;2022-12-29T13:27:56;11.17;78.80
69084;SHT31;56185;48.526;9.044;2022-12-29T13:30:31;11.16;78.61
69084;SHT31;56185;48.526;9.044;2022-12-29T13:33:23;11.17;78.67
69084;SHT31;56185;48.526;9.044;2022-12-29T13:36:00;11.24;77.89
69084;SHT31;56185;48.526;9.044;2022-12-29T13:38:40;11.26;77.55
69084;SHT31;56185;48.526;9.044;2022-12-29T13:41:13;11.37;77.63
69084;SHT31;56185;48.526;9.044;2022-12-29T13:43:43;11.32;77.66
69084;SHT31;56185;48.526;9.044;2022-12-29T13:46:15;11.31;77.33
69084;SHT31;56185;48.526;9.044;2022-12-29T13:48:54;11.26;77.33
69084;SHT31;56185;48.526;9.044;2022-12-29T13:51:21;11.37;77.24
69084;SHT31;56185;48.526;9.044;2022-12-29T14:07:43;11.65;75.95
69084;SHT31;56185;48.526;9.044;2022-12-29T14:13:16;11.61;75.58
69084;SHT31;56185;48.526;9.044;2022-12-29T14:15:43;11.57;75.65
69084;SHT31;56185;48.526;9.044;2022-12-29T14:18:23;11.61;75.23
69084;SHT31;56185;48.526;9.044;2022-12-29T14:21:01;11.52;75.69
69084;SHT31;56185;48.526;9.044;2022-12-29T14:23:38;11.48;75.13
69084;SHT31;56185;48.526;9.044;2022-12-29T14:28:31;11.51;74.86
69084;SHT31;56185;48.526;9.044;2022-12-29T14:31:01;11.48;74.81
69084;SHT31;56185;48.526;9.044;2022-12-29T14:33:32;11.45;74.69
69084;SHT31;56185;48.526;9.044;2022-12-29T14:36:21;11.44;74.78
69084;SHT31;56185;48.526;9.044;2022-12-29T14:38:48;11.28;75.11
69084;SHT31;56185;48.526;9.044;2022-12-29T14:41:24;11.34;74.98
69084;SHT31;56185;48.526;9.044;2022-12-29T14:43:54;11.21;74.97
69084;SHT31;56185;48.526;9.044;2022-12-29T14:46:24;11.31;74.69
69084;SHT31;56185;48.526;9.044;2022-12-29T14:48:55;11.24;74.90
69084;SHT31;56185;48.526;9.044;2022-12-29T14:51:31;11.32;74.78
69084;SHT31;56185;48.526;9.044;2022-12-29T14:53:59;11.20;75.03
69084;SHT31;56185;48.526;9.044;2022-12-29T14:56:27;11.20;75.02
69084;SHT31;56185;48.526;9.044;2022-12-29T14:59:02;11.19;74.27
69084;SHT31;56185;48.526;9.044;2022-12-29T15:01:47;11.14;74.55
69084;SHT31;56185;48.526;9.044;2022-12-29T15:04:21;11.17;74.28
69084;SHT31;56185;48.526;9.044;2022-12-29T15:06:49;11.21;74.13
69084;SHT31;56185;48.526;9.044;2022-12-29T15:09:37;11.13;74.17
69084;SHT31;56185;48.526;9.044;2022-12-29T15:14:38;11.06;73.95
69084;SHT31;56185;48.526;9.044;2022-12-29T15:19:48;11.03;73.71
69084;SHT31;56185;48.526;9.044;2022-12-29T15:22:14;11.11;73.63
69084;SHT31;56185;48.526;9.044;2022-12-29T15:24:44;11.00;74.10
69084;SHT31;56185;48.526;9.044;2022-12-29T15:27:13;11.04;74.40
69084;SHT31;56185;48.526;9.044;2022-12-29T15:29:41;10.86;74.61
69084;SHT31;56185;48.526;9.044;2022-12-29T15:32:20;10.95;74.57
69084;SHT31;56185;48.526;9.044;2022-12-29T15:34:48;10.93;74.65
69084;SHT31;56185;48.526;9.044;2022-12-29T15:37:18;10.93;74.08
69084;SHT31;56185;48.526;9.044;2022-12-29T15:39:44;10.97;73.86
69084;SHT31;56185;48.526;9.044;2022-12-29T15:42:19;10.97;73.83
69084;SHT31;56185;48.526;9.044;2022-12-29T15:44:46;10.93;74.15
69084;SHT31;56185;48.526;9.044;2022-12-29T15:47:16;10.97;73.95
69084;SHT31;56185;48.526;9.044;2022-12-29T15:49:43;10.89;73.67
69084;SHT31;56185;48.526;9.044;2022-12-29T15:52:10;10.75;73.47
69084;SHT31;56185;48.526;9.044;2022-12-29T15:54:36;10.79;73.35
69084;SHT31;56185;48.526;9.044;2022-12-29T15:57:02;10.83;73.35
69084;SHT31;56185;48.526;9.044;2022-12-29T15:59:32;10.88;73.32
69084;SHT31;56185;48.526;9.044;2022-12-29T16:01:59;10.89;72.72
69084;SHT31;56185;48.526;9.044;2022-12-29T16:04:28;10.93;72.75
69084;SHT31;56185;48.526;9.044;2022-12-29T16:07:02;10.97;72.67
69084;SHT31;56185;48.526;9.044;2022-12-29T16:09:43;10.93;73.34
69084;SHT31;56185;48.526;9.044;2022-12-29T16:12:18;10.89;72.99
69084;SHT31;56185;48.526;9.044;2022-12-29T16:15:07;10.84;73.25
69084;SHT31;56185;48.526;9.044;2022-12-29T16:17:34;10.80;74.07
69084;SHT31;56185;48.526;9.044;2022-12-29T16:20:06;10.68;74.76
69084;SHT31;56185;48.526;9.044;2022-12-29T16:22:40;10.62;74.93
69084;SHT31;56185;48.526;9.044;2022-12-29T16:25:21;10.53;74.94
69084;SHT31;56185;48.526;9.044;2022-12-29T16:27:47;10.46;75.06
69084;SHT31;56185;48.526;9.044;2022-12-29T16:30:23;10.38;75.41
69084;SHT31;56185;48.526;9.044;2022-12-29T16:32:51;10.22;75.93
69084;SHT31;56185;48.526;9.044;2022-12-29T16:35:19;10.07;76.42
69084;SHT31;56185;48.526;9.044;2022-12-29T16:37:46;10.07;76.60
69084;SHT31;56185;48.526;9.044;2022-12-29T16:50:26;9.97;77.24
69084;SHT31;56185;48.526;9.044;2022-12-29T16:52:52;9.98;76.94
69084;SHT31;56185;48.526;9.044;2022-12-29T16:55:18;9.97;77.08
69084;SHT31;56185;48.526;9.044;2022-12-29T16:57:46;9.89;77.23
69084;SHT31;56185;48.526;9.044;2022-12-29T17:00:24;9.86;77.75
69084;SHT31;56185;48.526;9.044;2022-12-29T17:02:52;9.89;77.87
69084;SHT31;56185;48.526;9.044;2022-12-29T17:05:19;9.72;78.28
69084;SHT31;56185;48.526;9.044;2022-12-29T17:07:45;9.69;78.44
69084;SHT31;56185;48.526;9.044;2022-12-29T17:10:11;9.64;78.41
69084;SHT31;56185;48.526;9.044;2022-12-29T17:12:37;9.76;78.27
69084;SHT31;56185;48.526;9.044;2022-12-29T17:15:04;9.77;78.15
69084;SHT31;56185;48.526;9.044;2022-12-29T17:17:39;9.69;78.41
69084;SHT31;56185;48.526;9.044;2022-12-29T17:20:22;9.62;78.92
69084;SHT31;56185;48.526;9.044;2022-12-29T17:22:48;9.60;78.91
69084;SHT31;56185;48.526;9.044;2022-12-29T17:25:17;9.59;79.10
69084;SHT31;56185;48.526;9.044;2022-12-29T17:27:47;9.54;79.18
69084;SHT31;56185;48.526;9.044;2022-12-29T17:30:19;9.47;79.79
69084;SHT31;56185;48.526;9.044;2022-12-29T17:32:49;9.49;79.64
69084;SHT31;56185;48.526;9.044;2022-12-29T17:35:16;9.63;79.39
69084;SHT31;56185;48.526;9.044;2022-12-29T17:37:42;9.59;79.61
69084;SHT31;56185;48.526;9.044;2022-12-29T17:40:15;9.62;79.41
69084;SHT31;56185;48.526;9.044;2022-12-29T17:42:48;9.47;80.05
69084;SHT31;56185;48.526;9.044;2022-12-29T17:45:20;9.53;79.73
69084;SHT31;56185;48.526;9.044;2022-12-29T17:47:46;9.47;80.05
69084;SHT31;56185;48.526;9.044;2022-12-29T17:50:17;9.50;79.85
69084;SHT31;56185;48.526;9.044;2022-12-29T17:52:48;9.50;79.80
69084;SHT31;56185;48.526;9.044;2022-12-29T17:55:16;9.50;79.70
69084;SHT31;56185;48.526;9.044;2022-12-29T17:57:42;9.57;79.59
69084;SHT31;56185;48.526;9.044;2022-12-29T18:00:14;9.63;79.19
69084;SHT31;56185;48.526;9.044;2022-12-29T18:02:39;9.66;78.95
69084;SHT31;56185;48.526;9.044;2022-12-29T18:05:05;9.60;78.80
69084;SHT31;56185;48.526;9.044;2022-12-29T18:07:30;9.57;79.10
69084;SHT31;56185;48.526;9.044;2022-12-29T18:09:55;9.57;79.07
69084;SHT31;56185;48.526;9.044;2022-12-29T18:12:40;9.59;79.33
69084;SHT31;56185;48.526;9.044;2022-12-29T18:15:20;9.60;79.50
69084;SHT31;56185;48.526;9.044;2022-12-29T18:17:46;9.59;79.49